createdAt,value
2022-11-13T00:00:13.964Z,89.31
2022-11-13T00:03:03.316Z,88.95
2022-11-13T00:05:48.811Z,88.80
2022-11-13T00:08:34.700Z,88.49
2022-11-13T00:11:20.725Z,88.09
2022-11-13T00:14:06.680Z,87.83
2022-11-13T00:16:52.340Z,87.39
2022-11-13T00:19:38.050Z,87.25
2022-11-13T00:22:23.693Z,86.65
2022-11-13T00:25:09.811Z,86.46
2022-11-13T00:27:55.173Z,86.02
2022-11-13T00:30:41.395Z,85.92
2022-11-13T00:33:53.560Z,85.96
2022-11-13T00:36:33.221Z,85.87
2022-11-13T00:39:19.019Z,85.64
2022-11-13T00:42:04.678Z,85.31
2022-11-13T00:44:50.298Z,84.73
2022-11-13T00:47:35.976Z,84.36
2022-11-13T00:50:21.747Z,84.11
2022-11-13T00:53:07.822Z,84.01
2022-11-13T00:55:53.176Z,83.68
2022-11-13T00:58:38.956Z,83.57
2022-11-13T01:01:24.902Z,83.71
2022-11-13T01:04:10.399Z,83.77
2022-11-13T01:06:56.192Z,83.86
2022-11-13T01:09:41.660Z,83.67
2022-11-13T01:12:28.368Z,83.52
2022-11-13T01:15:14.318Z,83.54
2022-11-13T01:17:59.875Z,83.50
2022-11-13T01:20:45.619Z,83.50
2022-11-13T01:23:31.159Z,83.62
2022-11-13T01:26:21.809Z,83.83
2022-11-13T01:29:12.541Z,83.78
2022-11-13T01:31:58.258Z,83.99
2022-11-13T01:34:43.892Z,84.01
2022-11-13T01:37:29.608Z,83.97
2022-11-13T01:40:15.725Z,83.96
2022-11-13T01:43:27.287Z,84.02
2022-11-13T01:46:33.744Z,83.77
2022-11-13T01:49:37.994Z,83.52
2022-11-13T01:52:36.661Z,83.18
2022-11-13T01:55:22.208Z,83.19
2022-11-13T01:58:10.944Z,83.13
2022-11-13T02:00:57.708Z,83.19
2022-11-13T02:03:43.392Z,83.40
2022-11-13T02:06:45.596Z,83.66
2022-11-13T02:09:38.564Z,83.69
2022-11-13T02:12:33.305Z,82.67
2022-11-13T02:15:25.428Z,81.92
2022-11-13T02:18:13.677Z,81.79
2022-11-13T02:21:16.333Z,82.11
2022-11-13T02:24:21.095Z,82.35
2022-11-13T02:27:15.780Z,82.99
2022-11-13T02:30:33.058Z,83.29
2022-11-13T02:33:32.458Z,83.02
2022-11-13T02:36:22.798Z,83.21
2022-11-13T02:39:12.952Z,83.35
2022-11-13T02:41:58.464Z,83.68
2022-11-13T02:44:43.982Z,84.02
2022-11-13T02:47:29.662Z,84.29
2022-11-13T02:50:17.150Z,84.60
2022-11-13T02:53:03.832Z,84.91
2022-11-13T02:55:49.266Z,84.96
2022-11-13T02:58:34.909Z,84.96
2022-11-13T03:01:21.685Z,84.67
2022-11-13T03:04:07.403Z,84.32
2022-11-13T03:06:53.128Z,84.38
2022-11-13T03:09:40.604Z,84.24
2022-11-13T03:12:26.106Z,84.20
2022-11-13T03:15:11.757Z,84.30
2022-11-13T03:17:57.376Z,84.14
2022-11-13T03:20:43.843Z,84.13
2022-11-13T03:23:29.445Z,84.12
2022-11-13T03:26:17.524Z,84.08
2022-11-13T03:29:03.307Z,84.04
2022-11-13T03:31:48.863Z,84.16
2022-11-13T03:34:34.550Z,84.01
2022-11-13T03:37:19.785Z,83.96
2022-11-13T03:40:09.393Z,84.30
2022-11-13T03:42:55.295Z,84.36
2022-11-13T03:45:41.097Z,84.62
2022-11-13T03:48:27.078Z,84.82
2022-11-13T03:51:13.965Z,85.06
2022-11-13T03:54:00.253Z,84.87
2022-11-13T03:56:45.679Z,84.77
2022-11-13T03:59:31.410Z,84.49
2022-11-13T04:02:17.019Z,84.11
2022-11-13T04:05:04.066Z,83.98
2022-11-13T04:07:51.208Z,83.77
2022-11-13T04:10:36.523Z,83.75
2022-11-13T04:13:22.351Z,83.50
2022-11-13T04:16:08.239Z,83.39
2022-11-13T04:18:54.311Z,83.55
2022-11-13T04:21:39.856Z,83.49
2022-11-13T04:24:25.512Z,83.48
2022-11-13T04:27:11.401Z,83.49
2022-11-13T04:29:56.747Z,83.73
2022-11-13T04:32:42.500Z,83.66
2022-11-13T04:35:28.344Z,83.36
2022-11-13T04:38:15.586Z,83.54
2022-11-13T04:41:19.808Z,83.26
2022-11-13T04:44:05.547Z,83.17
2022-11-13T04:46:53.312Z,83.11
2022-11-13T04:49:39.006Z,82.88
2022-11-13T04:52:24.865Z,82.86
2022-11-13T04:55:13.211Z,82.84
2022-11-13T04:57:58.887Z,82.83
2022-11-13T05:00:44.676Z,82.84
2022-11-13T05:03:30.300Z,82.79
2022-11-13T05:06:16.009Z,83.05
2022-11-13T05:09:01.712Z,82.97
2022-11-13T05:11:47.342Z,83.31
2022-11-13T05:14:38.940Z,83.46
2022-11-13T05:17:25.129Z,83.87
2022-11-13T05:20:11.669Z,83.83
2022-11-13T05:22:57.059Z,83.71
2022-11-13T05:25:42.798Z,83.54
2022-11-13T05:28:28.731Z,83.82
2022-11-13T05:31:16.622Z,83.52
2022-11-13T05:34:06.134Z,83.54
2022-11-13T05:36:51.796Z,83.26
2022-11-13T05:39:37.528Z,83.19
2022-11-13T05:42:23.276Z,82.91
2022-11-13T05:45:09.940Z,82.82
2022-11-13T05:47:55.336Z,83.09
2022-11-13T05:50:40.994Z,82.94
2022-11-13T05:53:26.607Z,83.05
2022-11-13T05:56:35.492Z,83.18
2022-11-13T05:59:21.036Z,83.26
2022-11-13T06:02:06.695Z,82.73
2022-11-13T06:04:56.343Z,82.67
2022-11-13T06:07:42.099Z,82.72
2022-11-13T06:10:27.661Z,82.76
2022-11-13T06:13:13.306Z,82.45
2022-11-13T06:16:12.235Z,82.43
2022-11-13T06:19:00.876Z,82.49
2022-11-13T06:21:46.732Z,82.60
2022-11-13T06:24:32.410Z,82.63
2022-11-13T06:27:17.871Z,82.79
2022-11-13T06:30:04.192Z,82.77
2022-11-13T06:32:53.726Z,82.56
2022-11-13T06:35:39.145Z,82.51
2022-11-13T06:38:24.792Z,82.53
2022-11-13T06:41:14.080Z,82.68
2022-11-13T06:44:02.954Z,82.77
2022-11-13T06:46:49.263Z,82.70
2022-11-13T06:49:34.799Z,83.27
2022-11-13T06:52:21.470Z,83.34
2022-11-13T06:55:07.246Z,83.46
2022-11-13T06:57:54.784Z,83.53
2022-11-13T07:00:42.324Z,83.54
2022-11-13T07:03:28.182Z,83.69
2022-11-13T07:06:18.905Z,83.68
2022-11-13T07:09:04.740Z,83.58
2022-11-13T07:11:50.339Z,83.57
2022-11-13T07:14:36.168Z,83.83
2022-11-13T07:17:21.844Z,83.85
2022-11-13T07:20:08.365Z,84.43
2022-11-13T07:23:02.345Z,85.81
2022-11-13T07:25:48.106Z,86.01
2022-11-13T07:28:33.681Z,85.06
2022-11-13T07:31:22.838Z,83.92
2022-11-13T07:34:08.525Z,82.93
2022-11-13T07:36:54.115Z,82.68
2022-11-13T07:39:41.554Z,82.48
2022-11-13T07:42:29.371Z,82.04
2022-11-13T07:45:16.965Z,81.87
2022-11-13T07:48:04.223Z,81.74
2022-11-13T07:50:53.403Z,81.79
2022-11-13T07:53:39.017Z,81.69
2022-11-13T07:56:25.460Z,81.22
2022-11-13T07:59:10.922Z,81.20
2022-11-13T08:01:56.776Z,81.23
2022-11-13T08:04:42.559Z,81.24
2022-11-13T08:07:28.354Z,80.98
2022-11-13T08:10:14.149Z,80.50
2022-11-13T08:13:10.631Z,80.26
2022-11-13T08:16:00.138Z,79.79
2022-11-13T08:18:45.824Z,79.96
2022-11-13T08:21:31.595Z,79.28
2022-11-13T08:24:18.190Z,79.05
2022-11-13T08:27:04.235Z,78.96
2022-11-13T08:29:51.372Z,78.92
2022-11-13T08:32:36.759Z,78.89
2022-11-13T08:35:28.038Z,78.06
2022-11-13T08:38:15.247Z,77.91
2022-11-13T08:41:08.953Z,76.94
2022-11-13T08:43:55.263Z,76.84
2022-11-13T08:46:40.991Z,77.02
2022-11-13T08:49:26.716Z,77.04
2022-11-13T08:52:12.482Z,76.62
2022-11-13T08:54:59.138Z,75.78
2022-11-13T08:57:44.833Z,75.09
2022-11-13T09:00:32.611Z,74.83
2022-11-13T09:03:19.330Z,74.21
2022-11-13T09:06:09.470Z,74.48
2022-11-13T09:08:55.019Z,73.76
2022-11-13T09:11:41.539Z,73.47
2022-11-13T09:14:28.148Z,73.16
2022-11-13T09:17:13.563Z,72.76
2022-11-13T09:20:03.745Z,71.95
2022-11-13T09:22:56.918Z,72.31
2022-11-13T09:25:42.419Z,71.52
2022-11-13T09:28:28.311Z,71.43
2022-11-13T09:31:14.160Z,70.95
2022-11-13T09:33:59.711Z,70.88
2022-11-13T09:36:45.224Z,70.79
2022-11-13T09:39:30.923Z,70.88
2022-11-13T09:42:26.714Z,70.33
2022-11-13T09:45:16.549Z,69.09
2022-11-13T09:48:40.681Z,66.76
2022-11-13T09:51:30.527Z,67.27
2022-11-13T09:54:17.098Z,67.04
2022-11-13T09:57:31.363Z,66.06
2022-11-13T10:00:21.141Z,63.56
2022-11-13T10:03:39.121Z,62.84
2022-11-13T10:07:19.602Z,63.30
2022-11-13T10:10:36.260Z,62.47
2022-11-13T10:13:33.331Z,62.78
2022-11-13T10:16:32.805Z,62.61
2022-11-13T10:19:53.188Z,61.11
2022-11-13T10:22:50.786Z,60.90
2022-11-13T10:25:38.643Z,61.25
2022-11-13T10:28:49.336Z,60.60
2022-11-13T10:31:49.880Z,60.60
2022-11-13T10:34:35.876Z,61.21
2022-11-13T10:37:28.830Z,60.78
2022-11-13T10:40:31.439Z,61.03
2022-11-13T10:43:26.895Z,61.34
2022-11-13T10:46:25.395Z,61.76
2022-11-13T10:49:21.522Z,62.27
2022-11-13T10:52:28.067Z,61.29
2022-11-13T10:55:28.637Z,61.78
2022-11-13T10:58:19.958Z,62.14
2022-11-13T11:01:24.123Z,60.94
2022-11-13T11:04:30.140Z,61.02
2022-11-13T11:07:22.556Z,60.51
2022-11-13T11:10:34.071Z,60.49
2022-11-13T11:13:25.216Z,60.19
2022-11-13T11:16:20.053Z,61.21
2022-11-13T11:19:14.119Z,60.41
2022-11-13T11:22:15.452Z,60.50
2022-11-13T11:25:12.770Z,58.43
2022-11-13T11:28:29.220Z,58.59
2022-11-13T11:31:24.112Z,58.46
2022-11-13T11:34:17.883Z,58.47
2022-11-13T11:37:22.956Z,59.07
2022-11-13T11:40:27.903Z,58.12
2022-11-13T11:43:29.175Z,56.75
2022-11-13T11:46:23.754Z,57.36
2022-11-13T11:49:12.691Z,56.81
2022-11-13T11:52:52.499Z,55.35
2022-11-13T11:56:07.230Z,54.50
2022-11-13T11:59:20.642Z,53.92
2022-11-13T12:02:08.185Z,53.47
2022-11-13T12:05:19.895Z,52.75
2022-11-13T12:08:41.381Z,53.03
2022-11-13T12:11:43.471Z,52.47
2022-11-13T12:15:02.927Z,53.21
2022-11-13T12:18:06.479Z,52.90
2022-11-13T12:21:23.123Z,53.72
2022-11-13T12:24:41.437Z,52.96
2022-11-13T12:28:02.776Z,51.27
2022-11-13T12:31:15.649Z,51.43
2022-11-13T12:34:37.295Z,50.61
2022-11-13T12:37:56.246Z,51.09
2022-11-13T12:41:04.704Z,50.88
2022-11-13T12:44:17.446Z,51.63
2022-11-13T12:47:04.243Z,51.10
2022-11-13T12:50:06.852Z,51.56
2022-11-13T12:53:03.066Z,50.51
2022-11-13T12:56:01.279Z,50.30
2022-11-13T12:59:35.198Z,50.37
2022-11-13T13:02:39.956Z,50.66
2022-11-13T13:05:48.902Z,50.77
2022-11-13T13:09:34.660Z,50.26
2022-11-13T13:12:44.574Z,50.55
2022-11-13T13:15:38.771Z,50.75
2022-11-13T13:18:35.717Z,50.71
2022-11-13T13:21:24.657Z,50.35
2022-11-13T13:24:33.692Z,50.69
2022-11-13T13:27:27.190Z,50.48
2022-11-13T13:30:23.024Z,49.86
2022-11-13T13:33:56.069Z,50.03
2022-11-13T13:37:01.166Z,50.26
2022-11-13T13:40:09.504Z,50.50
2022-11-13T13:43:55.688Z,50.74
2022-11-13T13:46:42.091Z,49.40
2022-11-13T13:49:28.930Z,49.67
2022-11-13T13:52:16.353Z,49.43
2022-11-13T13:55:06.625Z,48.98
2022-11-13T13:57:52.947Z,48.60
2022-11-13T14:00:58.993Z,49.17
2022-11-13T14:03:44.759Z,49.48
2022-11-13T14:06:30.504Z,48.93
2022-11-13T14:09:20.483Z,49.66
2022-11-13T14:12:18.595Z,49.43
2022-11-13T14:15:17.195Z,49.67
2022-11-13T14:18:16.289Z,49.11
2022-11-13T14:21:10.684Z,49.91
2022-11-13T14:23:57.537Z,50.36
2022-11-13T14:26:43.179Z,50.45
2022-11-13T14:29:45.903Z,50.59
2022-11-13T14:32:42.966Z,50.60
2022-11-13T14:35:31.627Z,51.21
2022-11-13T14:38:26.089Z,51.37
2022-11-13T14:41:56.654Z,51.53
2022-11-13T14:44:42.233Z,51.96
2022-11-13T14:47:37.246Z,52.31
2022-11-13T14:50:36.084Z,52.52
2022-11-13T14:53:38.942Z,52.78
2022-11-13T14:56:33.819Z,53.27
2022-11-13T14:59:28.291Z,53.35
2022-11-13T15:02:13.855Z,53.75
2022-11-13T15:04:59.603Z,54.12
2022-11-13T15:07:46.448Z,54.80
2022-11-13T15:10:32.453Z,55.25
2022-11-13T15:13:18.566Z,55.99
2022-11-13T15:16:05.242Z,56.33
2022-11-13T15:18:58.457Z,57.35
2022-11-13T15:22:05.543Z,57.88
2022-11-13T15:24:53.062Z,58.46
2022-11-13T15:27:42.888Z,59.20
2022-11-13T15:30:29.924Z,59.61
2022-11-13T15:33:16.584Z,59.81
2022-11-13T15:36:01.850Z,60.30
2022-11-13T15:38:47.717Z,60.80
2022-11-13T15:41:36.748Z,61.17
2022-11-13T15:44:22.436Z,61.66
2022-11-13T15:47:30.722Z,61.86
2022-11-13T15:50:17.015Z,62.38
2022-11-13T15:53:06.065Z,62.88
2022-11-13T15:55:51.987Z,63.37
2022-11-13T15:58:37.464Z,63.56
2022-11-13T16:01:23.482Z,63.68
2022-11-13T16:04:11.977Z,64.41
2022-11-13T16:06:57.435Z,65.84
2022-11-13T16:09:44.795Z,66.22
2022-11-13T16:12:30.504Z,67.13
2022-11-13T16:15:17.703Z,66.99
2022-11-13T16:18:03.445Z,67.15
2022-11-13T16:20:51.589Z,68.55
2022-11-13T16:23:37.327Z,69.94
2022-11-13T16:26:26.163Z,70.34
2022-11-13T16:29:20.431Z,70.46
2022-11-13T16:32:06.299Z,70.98
2022-11-13T16:34:51.726Z,70.85
2022-11-13T16:37:39.460Z,70.66
2022-11-13T16:40:26.600Z,70.41
2022-11-13T16:43:12.944Z,71.11
2022-11-13T16:46:00.720Z,71.66
2022-11-13T16:48:49.517Z,72.11
2022-11-13T16:51:35.021Z,73.03
2022-11-13T16:54:20.661Z,72.43
2022-11-13T16:57:06.470Z,73.04
2022-11-13T16:59:52.098Z,74.13
2022-11-13T17:02:40.192Z,74.78
2022-11-13T17:05:25.891Z,75.21
2022-11-13T17:08:12.837Z,74.92
2022-11-13T17:11:02.430Z,75.45
2022-11-13T17:13:51.343Z,75.72
2022-11-13T17:16:46.336Z,75.78
2022-11-13T17:19:35.478Z,76.13
2022-11-13T17:22:21.420Z,75.95
2022-11-13T17:25:07.409Z,76.18
2022-11-13T17:27:52.827Z,76.23
2022-11-13T17:30:38.396Z,75.91
2022-11-13T17:33:25.271Z,75.43
2022-11-13T17:36:12.321Z,75.63
2022-11-13T17:38:58.104Z,75.51
2022-11-13T17:41:43.801Z,75.87
2022-11-13T17:44:29.876Z,75.92
2022-11-13T17:47:16.703Z,76.36
2022-11-13T17:50:06.952Z,76.39
2022-11-13T17:52:53.152Z,76.48
2022-11-13T17:55:38.837Z,76.62
2022-11-13T17:58:26.227Z,75.89
2022-11-13T18:01:21.864Z,75.76
2022-11-13T18:04:07.766Z,75.71
2022-11-13T18:06:53.244Z,75.86
2022-11-13T18:09:39.572Z,76.07
2022-11-13T18:12:25.750Z,76.33
2022-11-13T18:15:11.513Z,77.10
2022-11-13T18:17:57.651Z,78.52
2022-11-13T18:20:43.284Z,78.82
2022-11-13T18:23:29.167Z,79.00
2022-11-13T18:26:19.875Z,78.74
2022-11-13T18:29:05.640Z,78.77
2022-11-13T18:31:56.542Z,79.36
2022-11-13T18:34:42.122Z,81.03
2022-11-13T18:37:27.819Z,81.46
2022-11-13T18:40:13.555Z,81.09
2022-11-13T18:42:59.204Z,80.36
2022-11-13T18:45:57.772Z,79.59
2022-11-13T18:48:45.839Z,79.53
2022-11-13T18:51:35.472Z,79.27
2022-11-13T18:54:21.276Z,79.00
2022-11-13T18:57:06.772Z,79.09
2022-11-13T18:59:53.353Z,79.18
2022-11-13T19:02:39.131Z,79.69
2022-11-13T19:05:24.833Z,79.61
2022-11-13T19:08:10.520Z,80.73
2022-11-13T19:11:04.209Z,81.40
2022-11-13T19:13:49.938Z,81.83
2022-11-13T19:16:39.503Z,82.88
2022-11-13T19:19:24.976Z,82.96
2022-11-13T19:22:10.884Z,82.75
2022-11-13T19:24:56.724Z,82.44
2022-11-13T19:27:44.845Z,81.83
2022-11-13T19:30:30.662Z,81.49
2022-11-13T19:33:19.474Z,81.46
2022-11-13T19:36:13.858Z,81.51
2022-11-13T19:39:00.263Z,81.39
2022-11-13T19:41:46.048Z,81.42
2022-11-13T19:44:31.806Z,81.63
2022-11-13T19:47:17.457Z,81.61
2022-11-13T19:50:03.657Z,81.71
2022-11-13T19:52:48.947Z,82.19
2022-11-13T19:55:34.789Z,82.00
2022-11-13T19:58:20.267Z,81.76
2022-11-13T20:01:15.742Z,81.74
2022-11-13T20:04:05.258Z,81.23
2022-11-13T20:06:52.971Z,81.48
2022-11-13T20:09:38.444Z,81.49
2022-11-13T20:12:24.193Z,81.63
2022-11-13T20:15:10.083Z,81.55
2022-11-13T20:17:56.195Z,81.77
2022-11-13T20:20:44.252Z,81.67
2022-11-13T20:23:30.543Z,81.56
2022-11-13T20:26:18.892Z,81.34
2022-11-13T20:29:04.516Z,81.20
2022-11-13T20:31:51.976Z,81.14
2022-11-13T20:34:37.495Z,80.93
2022-11-13T20:37:23.190Z,80.50
2022-11-13T20:40:12.942Z,80.45
2022-11-13T20:42:58.572Z,80.23
2022-11-13T20:45:44.384Z,80.01
2022-11-13T20:48:30.784Z,79.98
2022-11-13T20:51:24.593Z,80.10
2022-11-13T20:54:10.207Z,80.05
2022-11-13T20:56:55.924Z,80.21
2022-11-13T20:59:41.434Z,79.80
2022-11-13T21:02:27.035Z,80.09
2022-11-13T21:05:12.704Z,79.94
2022-11-13T21:07:58.320Z,79.89
2022-11-13T21:10:44.927Z,79.82
2022-11-13T21:13:30.913Z,79.19
2022-11-13T21:16:18.059Z,79.63
2022-11-13T21:19:03.780Z,79.60
2022-11-13T21:21:50.644Z,80.18
2022-11-13T21:24:39.005Z,80.39
2022-11-13T21:27:24.630Z,80.72
2022-11-13T21:30:10.648Z,80.37
2022-11-13T21:32:59.841Z,79.99
2022-11-13T21:35:45.675Z,80.00
2022-11-13T21:38:31.965Z,79.92
2022-11-13T21:41:26.977Z,80.17
2022-11-13T21:44:12.326Z,80.26
2022-11-13T21:46:58.262Z,80.22
2022-11-13T21:49:43.904Z,80.11
2022-11-13T21:52:30.413Z,80.05
2022-11-13T21:55:16.139Z,80.05
2022-11-13T21:58:01.584Z,79.78
2022-11-13T22:00:47.204Z,79.52
2022-11-13T22:03:33.500Z,79.36
2022-11-13T22:06:23.352Z,79.33
2022-11-13T22:09:21.578Z,79.10
2022-11-13T22:12:07.022Z,79.08
2022-11-13T22:14:52.821Z,79.14
2022-11-13T22:17:38.904Z,78.90
2022-11-13T22:20:24.479Z,79.16
2022-11-13T22:23:10.049Z,79.15
2022-11-13T22:26:13.011Z,79.05
2022-11-13T22:29:00.117Z,79.51
2022-11-13T22:31:45.503Z,79.62
2022-11-13T22:34:31.127Z,79.77
2022-11-13T22:37:16.879Z,79.63
2022-11-13T22:40:02.942Z,79.52
2022-11-13T22:42:49.516Z,79.71
2022-11-13T22:45:34.971Z,79.75
2022-11-13T22:48:20.600Z,80.08
2022-11-13T22:51:14.686Z,80.19
2022-11-13T22:54:04.547Z,80.30
2022-11-13T22:56:49.804Z,80.26
2022-11-13T22:59:35.507Z,80.21
2022-11-13T23:02:21.068Z,80.26
2022-11-13T23:05:07.477Z,80.28
2022-11-13T23:07:53.364Z,80.21
2022-11-13T23:10:38.964Z,80.25
2022-11-13T23:13:25.487Z,80.31
2022-11-13T23:16:12.855Z,80.25
2022-11-13T23:19:01.018Z,80.09
2022-11-13T23:21:47.155Z,80.28
2022-11-13T23:24:33.728Z,80.42
2022-11-13T23:27:19.122Z,80.32
2022-11-13T23:30:05.916Z,80.56
2022-11-13T23:32:52.403Z,80.49
2022-11-13T23:35:37.916Z,80.71
2022-11-13T23:38:23.642Z,80.66
2022-11-13T23:41:10.803Z,80.57
2022-11-13T23:44:11.784Z,80.63
2022-11-13T23:46:57.445Z,80.66
2022-11-13T23:49:43.056Z,80.79
2022-11-13T23:52:28.831Z,80.92
2022-11-13T23:55:15.623Z,81.04
2022-11-13T23:58:04.055Z,80.92
